Gondomar, Spain
Current Conditions -  °F | °C
As of 12:08 PM on Friday 28 Nov 2014 (Local Time) from LEVX Reporting Station
Light Fog Light Fog  
Wind Chill: 45°   Ceiling: 200
Heat Index: 48°   Visibility: 1.8mi
Dew Point: 48°   Wind: 7mph
Humidity: 100%   Direction: 190°S
Pressure: 29"   Gusts: NA
Location:  42.11°N, 8.75°W
Report Text: LEVX 281108Z 19006KT 160V230 3000 0800SE R02/1400U BCFGBKN002 BKN035 09/09 Q0982 TEMPO 1000 BCFG
Loading
Personal Weather Stations






























Interactive Weather Map New forecast layout! Learn more

10-Day Weather Forecast

Advertisements
Track Severe Weather on mobile